sensor_id;sensor_type;location;lat;lon;timestamp;P1;durP1;ratioP1;P2;durP2;ratioP2
77140;SDS011;66277;50.988;11.322;2022-12-29T00:01:39;2.47;;;1.33;;
77140;SDS011;66277;50.988;11.322;2022-12-29T00:04:05;1.92;;;0.98;;
77140;SDS011;66277;50.988;11.322;2022-12-29T00:06:31;3.10;;;1.20;;
77140;SDS011;66277;50.988;11.322;2022-12-29T00:08:57;2.33;;;1.00;;
77140;SDS011;66277;50.988;11.322;2022-12-29T00:11:24;1.90;;;0.93;;
77140;SDS011;66277;50.988;11.322;2022-12-29T00:13:51;3.33;;;1.20;;
77140;SDS011;66277;50.988;11.322;2022-12-29T00:16:36;4.45;;;1.23;;
77140;SDS011;66277;50.988;11.322;2022-12-29T00:19:03;2.25;;;1.13;;
77140;SDS011;66277;50.988;11.322;2022-12-29T00:21:29;2.03;;;1.00;;
77140;SDS011;66277;50.988;11.322;2022-12-29T00:26:47;3.25;;;0.95;;
77140;SDS011;66277;50.988;11.322;2022-12-29T00:29:36;2.80;;;1.15;;
77140;SDS011;66277;50.988;11.322;2022-12-29T00:32:20;2.40;;;1.10;;
77140;SDS011;66277;50.988;11.322;2022-12-29T00:35:04;2.25;;;0.98;;
77140;SDS011;66277;50.988;11.322;2022-12-29T00:37:35;2.22;;;1.05;;
77140;SDS011;66277;50.988;11.322;2022-12-29T00:40:23;1.80;;;1.13;;
77140;SDS011;66277;50.988;11.322;2022-12-29T00:43:06;2.47;;;1.10;;
77140;SDS011;66277;50.988;11.322;2022-12-29T00:45:50;2.45;;;0.88;;
77140;SDS011;66277;50.988;11.322;2022-12-29T00:48:16;2.08;;;0.90;;
77140;SDS011;66277;50.988;11.322;2022-12-29T00:51:01;2.38;;;1.20;;
77140;SDS011;66277;50.988;11.322;2022-12-29T00:53:27;2.45;;;1.30;;
77140;SDS011;66277;50.988;11.322;2022-12-29T00:55:52;1.58;;;0.90;;
77140;SDS011;66277;50.988;11.322;2022-12-29T00:58:17;2.88;;;1.20;;
77140;SDS011;66277;50.988;11.322;2022-12-29T01:00:43;1.90;;;0.90;;
77140;SDS011;66277;50.988;11.322;2022-12-29T01:03:08;4.10;;;1.15;;
77140;SDS011;66277;50.988;11.322;2022-12-29T01:05:36;3.97;;;1.25;;
77140;SDS011;66277;50.988;11.322;2022-12-29T01:08:01;1.73;;;1.00;;
77140;SDS011;66277;50.988;11.322;2022-12-29T01:10:27;3.10;;;1.52;;
77140;SDS011;66277;50.988;11.322;2022-12-29T01:12:52;2.55;;;1.25;;
77140;SDS011;66277;50.988;11.322;2022-12-29T01:15:18;2.72;;;1.10;;
77140;SDS011;66277;50.988;11.322;2022-12-29T01:17:43;2.80;;;1.40;;
77140;SDS011;66277;50.988;11.322;2022-12-29T01:20:09;2.45;;;1.33;;
77140;SDS011;66277;50.988;11.322;2022-12-29T01:22:35;2.53;;;1.10;;
77140;SDS011;66277;50.988;11.322;2022-12-29T01:25:01;2.03;;;1.13;;
77140;SDS011;66277;50.988;11.322;2022-12-29T01:27:27;2.95;;;1.48;;
77140;SDS011;66277;50.988;11.322;2022-12-29T01:29:53;3.75;;;1.25;;
77140;SDS011;66277;50.988;11.322;2022-12-29T01:32:18;2.55;;;1.35;;
77140;SDS011;66277;50.988;11.322;2022-12-29T01:34:44;3.47;;;1.10;;
77140;SDS011;66277;50.988;11.322;2022-12-29T01:37:09;1.70;;;1.10;;
77140;SDS011;66277;50.988;11.322;2022-12-29T01:39:35;2.58;;;1.20;;
77140;SDS011;66277;50.988;11.322;2022-12-29T01:42:01;1.65;;;0.93;;
77140;SDS011;66277;50.988;11.322;2022-12-29T01:47:18;2.20;;;1.25;;
77140;SDS011;66277;50.988;11.322;2022-12-29T01:49:52;2.40;;;1.02;;
77140;SDS011;66277;50.988;11.322;2022-12-29T01:52:20;3.28;;;1.40;;
77140;SDS011;66277;50.988;11.322;2022-12-29T01:54:50;1.60;;;1.02;;
77140;SDS011;66277;50.988;11.322;2022-12-29T01:57:21;2.45;;;1.02;;
77140;SDS011;66277;50.988;11.322;2022-12-29T01:59:53;1.77;;;1.00;;
77140;SDS011;66277;50.988;11.322;2022-12-29T02:02:28;2.00;;;1.10;;
77140;SDS011;66277;50.988;11.322;2022-12-29T02:04:55;2.03;;;1.00;;
77140;SDS011;66277;50.988;11.322;2022-12-29T02:07:24;2.33;;;0.93;;
77140;SDS011;66277;50.988;11.322;2022-12-29T02:09:52;3.03;;;1.55;;
77140;SDS011;66277;50.988;11.322;2022-12-29T02:12:20;3.03;;;1.40;;
77140;SDS011;66277;50.988;11.322;2022-12-29T02:14:48;2.72;;;1.17;;
77140;SDS011;66277;50.988;11.322;2022-12-29T02:32:25;2.25;;;1.13;;
77140;SDS011;66277;50.988;11.322;2022-12-29T02:34:44;2.65;;;1.00;;
77140;SDS011;66277;50.988;11.322;2022-12-29T02:40:23;4.28;;;1.40;;
77140;SDS011;66277;50.988;11.322;2022-12-29T02:43:01;2.13;;;1.02;;
77140;SDS011;66277;50.988;11.322;2022-12-29T02:48:31;2.33;;;1.08;;
77140;SDS011;66277;50.988;11.322;2022-12-29T02:51:12;4.30;;;1.30;;
77140;SDS011;66277;50.988;11.322;2022-12-29T02:53:44;1.98;;;1.00;;
77140;SDS011;66277;50.988;11.322;2022-12-29T02:56:29;2.90;;;1.55;;
77140;SDS011;66277;50.988;11.322;2022-12-29T02:58:54;3.85;;;1.55;;
77140;SDS011;66277;50.988;11.322;2022-12-29T03:09:58;2.15;;;1.10;;
77140;SDS011;66277;50.988;11.322;2022-12-29T03:12:46;3.30;;;1.20;;
77140;SDS011;66277;50.988;11.322;2022-12-29T03:15:45;2.33;;;1.00;;
77140;SDS011;66277;50.988;11.322;2022-12-29T03:18:37;2.22;;;1.13;;
77140;SDS011;66277;50.988;11.322;2022-12-29T03:24:40;2.88;;;1.10;;
77140;SDS011;66277;50.988;11.322;2022-12-29T03:27:09;2.75;;;1.38;;
77140;SDS011;66277;50.988;11.322;2022-12-29T03:29:42;2.92;;;1.05;;
77140;SDS011;66277;50.988;11.322;2022-12-29T03:32:12;2.00;;;1.10;;
77140;SDS011;66277;50.988;11.322;2022-12-29T03:34:39;2.33;;;1.10;;
77140;SDS011;66277;50.988;11.322;2022-12-29T03:37:26;1.77;;;0.90;;
77140;SDS011;66277;50.988;11.322;2022-12-29T03:39:56;3.13;;;1.00;;
77140;SDS011;66277;50.988;11.322;2022-12-29T03:42:23;3.45;;;1.00;;
77140;SDS011;66277;50.988;11.322;2022-12-29T03:44:53;1.92;;;0.70;;
77140;SDS011;66277;50.988;11.322;2022-12-29T03:47:21;2.00;;;0.82;;
77140;SDS011;66277;50.988;11.322;2022-12-29T03:49:47;1.33;;;0.70;;
77140;SDS011;66277;50.988;11.322;2022-12-29T03:52:14;2.45;;;0.80;;
77140;SDS011;66277;50.988;11.322;2022-12-29T03:54:39;1.60;;;1.15;;
77140;SDS011;66277;50.988;11.322;2022-12-29T03:57:05;1.52;;;0.73;;
77140;SDS011;66277;50.988;11.322;2022-12-29T03:59:30;1.85;;;0.90;;
77140;SDS011;66277;50.988;11.322;2022-12-29T04:01:56;2.38;;;1.00;;
77140;SDS011;66277;50.988;11.322;2022-12-29T04:04:21;1.20;;;0.70;;
77140;SDS011;66277;50.988;11.322;2022-12-29T04:06:47;1.88;;;1.30;;
77140;SDS011;66277;50.988;11.322;2022-12-29T04:09:12;1.70;;;0.80;;
77140;SDS011;66277;50.988;11.322;2022-12-29T04:11:38;1.65;;;1.33;;
77140;SDS011;66277;50.988;11.322;2022-12-29T04:14:04;2.22;;;0.80;;
77140;SDS011;66277;50.988;11.322;2022-12-29T04:16:29;2.28;;;1.08;;
77140;SDS011;66277;50.988;11.322;2022-12-29T04:18:54;1.40;;;0.90;;
77140;SDS011;66277;50.988;11.322;2022-12-29T04:21:20;2.58;;;1.00;;
77140;SDS011;66277;50.988;11.322;2022-12-29T04:23:45;1.45;;;0.68;;
77140;SDS011;66277;50.988;11.322;2022-12-29T04:26:11;1.92;;;1.02;;
77140;SDS011;66277;50.988;11.322;2022-12-29T04:28:37;2.17;;;1.05;;
77140;SDS011;66277;50.988;11.322;2022-12-29T04:31:03;2.20;;;0.90;;
77140;SDS011;66277;50.988;11.322;2022-12-29T04:33:29;3.45;;;1.17;;
77140;SDS011;66277;50.988;11.322;2022-12-29T04:35:55;1.90;;;1.13;;
77140;SDS011;66277;50.988;11.322;2022-12-29T04:38:21;1.95;;;1.10;;
77140;SDS011;66277;50.988;11.322;2022-12-29T04:40:48;2.53;;;1.00;;
77140;SDS011;66277;50.988;11.322;2022-12-29T04:43:15;2.17;;;0.77;;
77140;SDS011;66277;50.988;11.322;2022-12-29T04:45:47;2.00;;;1.17;;
77140;SDS011;66277;50.988;11.322;2022-12-29T04:48:13;1.70;;;0.90;;
77140;SDS011;66277;50.988;11.322;2022-12-29T04:50:40;2.20;;;0.90;;
77140;SDS011;66277;50.988;11.322;2022-12-29T04:53:06;2.65;;;1.00;;
77140;SDS011;66277;50.988;11.322;2022-12-29T04:55:32;1.75;;;1.02;;
77140;SDS011;66277;50.988;11.322;2022-12-29T04:57:57;2.15;;;0.88;;
77140;SDS011;66277;50.988;11.322;2022-12-29T05:00:23;1.80;;;0.95;;
77140;SDS011;66277;50.988;11.322;2022-12-29T05:02:48;2.35;;;1.00;;
77140;SDS011;66277;50.988;11.322;2022-12-29T05:05:14;1.77;;;0.90;;
77140;SDS011;66277;50.988;11.322;2022-12-29T05:07:40;2.58;;;0.90;;
77140;SDS011;66277;50.988;11.322;2022-12-29T05:10:06;2.58;;;1.20;;
77140;SDS011;66277;50.988;11.322;2022-12-29T05:12:33;1.70;;;0.93;;
77140;SDS011;66277;50.988;11.322;2022-12-29T05:14:59;3.15;;;1.13;;
77140;SDS011;66277;50.988;11.322;2022-12-29T05:17:25;1.85;;;1.00;;
77140;SDS011;66277;50.988;11.322;2022-12-29T05:19:51;3.45;;;1.10;;
77140;SDS011;66277;50.988;11.322;2022-12-29T05:22:16;1.80;;;0.93;;
77140;SDS011;66277;50.988;11.322;2022-12-29T05:24:42;2.00;;;1.00;;
77140;SDS011;66277;50.988;11.322;2022-12-29T05:27:08;3.38;;;1.10;;
77140;SDS011;66277;50.988;11.322;2022-12-29T05:29:33;2.13;;;0.93;;
77140;SDS011;66277;50.988;11.322;2022-12-29T05:31:59;4.05;;;1.15;;
77140;SDS011;66277;50.988;11.322;2022-12-29T05:34:24;1.85;;;0.80;;
77140;SDS011;66277;50.988;11.322;2022-12-29T05:36:50;3.53;;;1.00;;
77140;SDS011;66277;50.988;11.322;2022-12-29T05:39:15;3.15;;;1.02;;
77140;SDS011;66277;50.988;11.322;2022-12-29T05:41:41;2.08;;;1.10;;
77140;SDS011;66277;50.988;11.322;2022-12-29T05:44:06;2.58;;;0.90;;
77140;SDS011;66277;50.988;11.322;2022-12-29T05:46:32;2.13;;;1.10;;
77140;SDS011;66277;50.988;11.322;2022-12-29T05:48:57;1.67;;;0.90;;
77140;SDS011;66277;50.988;11.322;2022-12-29T05:51:23;1.92;;;1.00;;
77140;SDS011;66277;50.988;11.322;2022-12-29T05:53:48;2.67;;;0.80;;
77140;SDS011;66277;50.988;11.322;2022-12-29T05:56:14;2.08;;;0.80;;
77140;SDS011;66277;50.988;11.322;2022-12-29T05:58:40;1.50;;;0.75;;
77140;SDS011;66277;50.988;11.322;2022-12-29T06:01:05;1.73;;;0.70;;
77140;SDS011;66277;50.988;11.322;2022-12-29T06:03:31;1.75;;;0.60;;
77140;SDS011;66277;50.988;11.322;2022-12-29T06:05:56;1.70;;;0.85;;
77140;SDS011;66277;50.988;11.322;2022-12-29T06:08:21;1.35;;;0.60;;
77140;SDS011;66277;50.988;11.322;2022-12-29T06:10:47;1.67;;;1.00;;
77140;SDS011;66277;50.988;11.322;2022-12-29T06:13:12;1.50;;;0.70;;
77140;SDS011;66277;50.988;11.322;2022-12-29T06:15:38;1.27;;;0.70;;
77140;SDS011;66277;50.988;11.322;2022-12-29T06:18:03;1.60;;;0.63;;
77140;SDS011;66277;50.988;11.322;2022-12-29T06:20:29;2.20;;;1.00;;
77140;SDS011;66277;50.988;11.322;2022-12-29T06:22:54;1.85;;;0.70;;
77140;SDS011;66277;50.988;11.322;2022-12-29T06:25:20;1.67;;;0.80;;
77140;SDS011;66277;50.988;11.322;2022-12-29T06:27:45;2.80;;;0.82;;
77140;SDS011;66277;50.988;11.322;2022-12-29T06:30:11;1.70;;;0.52;;
77140;SDS011;66277;50.988;11.322;2022-12-29T06:32:37;1.95;;;0.90;;
77140;SDS011;66277;50.988;11.322;2022-12-29T06:35:03;2.03;;;0.70;;
77140;SDS011;66277;50.988;11.322;2022-12-29T06:37:29;2.85;;;0.90;;
77140;SDS011;66277;50.988;11.322;2022-12-29T06:39:54;2.58;;;0.70;;
77140;SDS011;66277;50.988;11.322;2022-12-29T06:42:20;2.00;;;0.82;;
77140;SDS011;66277;50.988;11.322;2022-12-29T06:44:45;1.50;;;0.60;;
77140;SDS011;66277;50.988;11.322;2022-12-29T06:47:11;1.88;;;0.77;;
77140;SDS011;66277;50.988;11.322;2022-12-29T06:49:36;1.77;;;0.63;;
77140;SDS011;66277;50.988;11.322;2022-12-29T06:52:02;1.98;;;0.70;;
77140;SDS011;66277;50.988;11.322;2022-12-29T06:54:29;2.63;;;0.98;;
77140;SDS011;66277;50.988;11.322;2022-12-29T06:56:55;1.70;;;0.70;;
77140;SDS011;66277;50.988;11.322;2022-12-29T06:59:21;2.38;;;0.75;;
77140;SDS011;66277;50.988;11.322;2022-12-29T07:01:47;1.30;;;0.60;;
77140;SDS011;66277;50.988;11.322;2022-12-29T07:04:12;2.10;;;0.60;;
77140;SDS011;66277;50.988;11.322;2022-12-29T07:06:37;1.20;;;0.50;;
77140;SDS011;66277;50.988;11.322;2022-12-29T07:09:05;1.58;;;0.55;;
77140;SDS011;66277;50.988;11.322;2022-12-29T07:11:31;2.30;;;0.73;;
77140;SDS011;66277;50.988;11.322;2022-12-29T07:13:57;2.25;;;0.80;;
77140;SDS011;66277;50.988;11.322;2022-12-29T07:16:22;2.92;;;0.73;;
77140;SDS011;66277;50.988;11.322;2022-12-29T07:18:48;1.73;;;0.65;;
77140;SDS011;66277;50.988;11.322;2022-12-29T07:21:13;1.95;;;0.68;;
77140;SDS011;66277;50.988;11.322;2022-12-29T07:23:39;2.45;;;0.85;;
77140;SDS011;66277;50.988;11.322;2022-12-29T07:26:05;1.85;;;0.70;;
77140;SDS011;66277;50.988;11.322;2022-12-29T07:28:34;3.05;;;0.80;;
77140;SDS011;66277;50.988;11.322;2022-12-29T07:31:00;2.40;;;0.80;;
77140;SDS011;66277;50.988;11.322;2022-12-29T07:33:29;3.17;;;0.63;;
77140;SDS011;66277;50.988;11.322;2022-12-29T07:35:55;1.58;;;0.75;;
77140;SDS011;66277;50.988;11.322;2022-12-29T07:38:21;1.92;;;0.80;;
77140;SDS011;66277;50.988;11.322;2022-12-29T07:40:46;3.13;;;0.85;;
77140;SDS011;66277;50.988;11.322;2022-12-29T07:43:12;2.15;;;0.80;;
77140;SDS011;66277;50.988;11.322;2022-12-29T07:45:37;3.17;;;0.98;;
77140;SDS011;66277;50.988;11.322;2022-12-29T07:48:04;1.90;;;0.77;;
77140;SDS011;66277;50.988;11.322;2022-12-29T07:50:32;2.10;;;1.05;;
77140;SDS011;66277;50.988;11.322;2022-12-29T07:52:58;2.00;;;0.70;;
77140;SDS011;66277;50.988;11.322;2022-12-29T07:55:24;1.73;;;0.63;;
77140;SDS011;66277;50.988;11.322;2022-12-29T07:57:52;1.77;;;0.60;;
77140;SDS011;66277;50.988;11.322;2022-12-29T08:00:18;2.47;;;0.70;;
77140;SDS011;66277;50.988;11.322;2022-12-29T08:02:44;2.35;;;0.70;;
77140;SDS011;66277;50.988;11.322;2022-12-29T08:05:09;1.52;;;0.65;;
77140;SDS011;66277;50.988;11.322;2022-12-29T08:07:35;2.45;;;0.88;;
77140;SDS011;66277;50.988;11.322;2022-12-29T08:10:00;1.88;;;1.00;;
77140;SDS011;66277;50.988;11.322;2022-12-29T08:12:26;1.20;;;0.45;;
77140;SDS011;66277;50.988;11.322;2022-12-29T08:14:52;1.35;;;0.55;;
77140;SDS011;66277;50.988;11.322;2022-12-29T08:17:17;1.65;;;0.70;;
77140;SDS011;66277;50.988;11.322;2022-12-29T08:19:43;1.27;;;0.60;;
77140;SDS011;66277;50.988;11.322;2022-12-29T08:22:08;2.55;;;0.85;;
77140;SDS011;66277;50.988;11.322;2022-12-29T08:24:34;2.33;;;0.95;;
77140;SDS011;66277;50.988;11.322;2022-12-29T08:27:00;1.42;;;0.70;;
77140;SDS011;66277;50.988;11.322;2022-12-29T08:29:25;1.58;;;0.80;;
77140;SDS011;66277;50.988;11.322;2022-12-29T08:31:51;1.23;;;0.70;;
77140;SDS011;66277;50.988;11.322;2022-12-29T08:34:17;1.70;;;0.60;;
77140;SDS011;66277;50.988;11.322;2022-12-29T08:36:42;2.28;;;0.60;;
77140;SDS011;66277;50.988;11.322;2022-12-29T08:39:07;1.35;;;0.50;;
77140;SDS011;66277;50.988;11.322;2022-12-29T08:41:33;2.22;;;0.70;;
77140;SDS011;66277;50.988;11.322;2022-12-29T08:43:59;1.80;;;0.82;;
77140;SDS011;66277;50.988;11.322;2022-12-29T08:46:24;1.98;;;0.80;;
77140;SDS011;66277;50.988;11.322;2022-12-29T08:48:50;1.88;;;0.95;;
77140;SDS011;66277;50.988;11.322;2022-12-29T08:51:15;1.27;;;0.50;;
77140;SDS011;66277;50.988;11.322;2022-12-29T08:53:42;1.80;;;0.70;;
77140;SDS011;66277;50.988;11.322;2022-12-29T08:56:08;1.35;;;0.60;;
77140;SDS011;66277;50.988;11.322;2022-12-29T08:58:34;2.55;;;0.80;;
77140;SDS011;66277;50.988;11.322;2022-12-29T09:00:59;2.47;;;0.57;;
77140;SDS011;66277;50.988;11.322;2022-12-29T09:03:25;2.22;;;0.95;;
77140;SDS011;66277;50.988;11.322;2022-12-29T09:05:54;3.30;;;1.02;;
77140;SDS011;66277;50.988;11.322;2022-12-29T09:08:20;2.35;;;0.80;;
77140;SDS011;66277;50.988;11.322;2022-12-29T09:10:46;1.60;;;0.68;;
77140;SDS011;66277;50.988;11.322;2022-12-29T09:13:12;1.60;;;0.95;;
77140;SDS011;66277;50.988;11.322;2022-12-29T09:15:38;1.30;;;0.60;;
77140;SDS011;66277;50.988;11.322;2022-12-29T09:18:04;2.58;;;0.85;;
77140;SDS011;66277;50.988;11.322;2022-12-29T09:20:30;1.05;;;0.57;;
77140;SDS011;66277;50.988;11.322;2022-12-29T09:22:56;1.70;;;0.60;;
77140;SDS011;66277;50.988;11.322;2022-12-29T09:25:21;1.92;;;0.70;;
77140;SDS011;66277;50.988;11.322;2022-12-29T09:27:49;2.20;;;0.95;;
77140;SDS011;66277;50.988;11.322;2022-12-29T09:30:17;2.33;;;0.70;;
77140;SDS011;66277;50.988;11.322;2022-12-29T09:32:43;1.45;;;0.50;;
77140;SDS011;66277;50.988;11.322;2022-12-29T09:35:09;1.63;;;0.80;;
77140;SDS011;66277;50.988;11.322;2022-12-29T09:37:34;1.92;;;1.02;;
77140;SDS011;66277;50.988;11.322;2022-12-29T09:40:02;1.65;;;0.60;;
77140;SDS011;66277;50.988;11.322;2022-12-29T09:47:38;3.67;;;0.85;;
77140;SDS011;66277;50.988;11.322;2022-12-29T09:55:48;2.70;;;0.70;;
77140;SDS011;66277;50.988;11.322;2022-12-29T10:01:05;1.48;;;0.47;;
77140;SDS011;66277;50.988;11.322;2022-12-29T10:03:49;1.83;;;0.70;;
77140;SDS011;66277;50.988;11.322;2022-12-29T10:06:17;1.65;;;0.50;;
77140;SDS011;66277;50.988;11.322;2022-12-29T10:08:57;2.45;;;0.60;;
77140;SDS011;66277;50.988;11.322;2022-12-29T10:12:02;2.30;;;0.77;;
77140;SDS011;66277;50.988;11.322;2022-12-29T10:17:31;1.33;;;0.65;;
77140;SDS011;66277;50.988;11.322;2022-12-29T10:22:48;1.30;;;0.57;;
77140;SDS011;66277;50.988;11.322;2022-12-29T10:25:38;1.42;;;0.73;;
77140;SDS011;66277;50.988;11.322;2022-12-29T10:28:06;1.63;;;0.60;;
77140;SDS011;66277;50.988;11.322;2022-12-29T10:30:42;2.55;;;0.75;;
77140;SDS011;66277;50.988;11.322;2022-12-29T10:33:11;1.23;;;0.60;;
77140;SDS011;66277;50.988;11.322;2022-12-29T10:35:44;1.70;;;0.60;;
77140;SDS011;66277;50.988;11.322;2022-12-29T10:41:23;1.10;;;0.40;;
77140;SDS011;66277;50.988;11.322;2022-12-29T10:43:54;2.55;;;0.80;;
77140;SDS011;66277;50.988;11.322;2022-12-29T10:46:23;1.98;;;0.45;;
77140;SDS011;66277;50.988;11.322;2022-12-29T10:48:58;2.10;;;0.90;;
77140;SDS011;66277;50.988;11.322;2022-12-29T10:51:28;2.22;;;0.70;;
77140;SDS011;66277;50.988;11.322;2022-12-29T10:56:38;1.98;;;0.80;;
77140;SDS011;66277;50.988;11.322;2022-12-29T11:02:36;1.60;;;0.90;;
77140;SDS011;66277;50.988;11.322;2022-12-29T11:04:48;2.30;;;1.02;;
77140;SDS011;66277;50.988;11.322;2022-12-29T11:07:18;3.88;;;0.90;;
77140;SDS011;66277;50.988;11.322;2022-12-29T11:09:45;1.70;;;0.82;;
77140;SDS011;66277;50.988;11.322;2022-12-29T11:17:47;1.92;;;0.80;;
77140;SDS011;66277;50.988;11.322;2022-12-29T11:23:00;1.98;;;0.80;;
77140;SDS011;66277;50.988;11.322;2022-12-29T11:25:28;1.80;;;0.77;;
77140;SDS011;66277;50.988;11.322;2022-12-29T11:28:13;1.60;;;0.60;;
77140;SDS011;66277;50.988;11.322;2022-12-29T11:30:41;1.75;;;0.80;;
77140;SDS011;66277;50.988;11.322;2022-12-29T11:33:07;1.45;;;0.73;;
77140;SDS011;66277;50.988;11.322;2022-12-29T11:38:20;2.28;;;0.70;;
77140;SDS011;66277;50.988;11.322;2022-12-29T11:40:50;2.70;;;0.80;;
77140;SDS011;66277;50.988;11.322;2022-12-29T11:43:37;1.77;;;0.60;;
77140;SDS011;66277;50.988;11.322;2022-12-29T11:46:04;1.50;;;0.63;;
77140;SDS011;66277;50.988;11.322;2022-12-29T11:48:38;1.90;;;0.82;;
77140;SDS011;66277;50.988;11.322;2022-12-29T11:51:05;2.08;;;0.82;;
77140;SDS011;66277;50.988;11.322;2022-12-29T11:53:37;2.33;;;0.73;;
77140;SDS011;66277;50.988;11.322;2022-12-29T12:01:04;2.88;;;0.63;;
77140;SDS011;66277;50.988;11.322;2022-12-29T12:03:36;2.58;;;0.90;;
77140;SDS011;66277;50.988;11.322;2022-12-29T12:06:09;2.38;;;0.75;;
77140;SDS011;66277;50.988;11.322;2022-12-29T12:08:59;2.83;;;1.08;;
77140;SDS011;66277;50.988;11.322;2022-12-29T12:11:32;2.50;;;1.02;;
77140;SDS011;66277;50.988;11.322;2022-12-29T12:17:12;2.40;;;1.00;;
77140;SDS011;66277;50.988;11.322;2022-12-29T12:19:47;2.95;;;1.35;;
77140;SDS011;66277;50.988;11.322;2022-12-29T12:23:25;1.65;;;0.68;;
77140;SDS011;66277;50.988;11.322;2022-12-29T12:25:54;2.05;;;1.35;;
77140;SDS011;66277;50.988;11.322;2022-12-29T12:28:32;1.80;;;0.82;;
77140;SDS011;66277;50.988;11.322;2022-12-29T12:31:02;5.65;;;1.35;;
77140;SDS011;66277;50.988;11.322;2022-12-29T12:33:44;2.58;;;0.88;;
77140;SDS011;66277;50.988;11.322;2022-12-29T13:00:43;2.33;;;0.70;;
77140;SDS011;66277;50.988;11.322;2022-12-29T13:03:27;1.23;;;0.68;;
77140;SDS011;66277;50.988;11.322;2022-12-29T13:17:15;1.60;;;0.40;;
77140;SDS011;66277;50.988;11.322;2022-12-29T13:28:34;1.17;;;0.60;;
77140;SDS011;66277;50.988;11.322;2022-12-29T13:33:37;1.10;;;0.40;;
77140;SDS011;66277;50.988;11.322;2022-12-29T13:36:24;1.13;;;0.43;;
77140;SDS011;66277;50.988;11.322;2022-12-29T13:41:46;1.13;;;0.47;;
77140;SDS011;66277;50.988;11.322;2022-12-29T13:44:17;1.48;;;0.55;;
77140;SDS011;66277;50.988;11.322;2022-12-29T13:46:51;1.70;;;0.52;;
77140;SDS011;66277;50.988;11.322;2022-12-29T13:49:20;1.83;;;0.60;;
77140;SDS011;66277;50.988;11.322;2022-12-29T13:51:53;1.35;;;0.50;;
77140;SDS011;66277;50.988;11.322;2022-12-29T13:57:31;1.65;;;0.47;;
77140;SDS011;66277;50.988;11.322;2022-12-29T14:07:42;1.17;;;0.32;;
77140;SDS011;66277;50.988;11.322;2022-12-29T14:10:24;2.08;;;0.40;;
77140;SDS011;66277;50.988;11.322;2022-12-29T14:13:02;1.90;;;0.60;;
77140;SDS011;66277;50.988;11.322;2022-12-29T14:15:44;1.00;;;0.40;;
77140;SDS011;66277;50.988;11.322;2022-12-29T14:18:19;1.15;;;0.50;;
77140;SDS011;66277;50.988;11.322;2022-12-29T14:20:56;1.70;;;0.50;;
77140;SDS011;66277;50.988;11.322;2022-12-29T14:23:28;2.25;;;0.47;;
77140;SDS011;66277;50.988;11.322;2022-12-29T14:26:16;1.20;;;0.60;;
77140;SDS011;66277;50.988;11.322;2022-12-29T14:29:22;1.08;;;0.40;;
77140;SDS011;66277;50.988;11.322;2022-12-29T14:34:50;2.20;;;0.57;;
77140;SDS011;66277;50.988;11.322;2022-12-29T14:37:36;3.20;;;0.60;;
77140;SDS011;66277;50.988;11.322;2022-12-29T14:40:17;2.67;;;0.80;;
77140;SDS011;66277;50.988;11.322;2022-12-29T14:42:48;4.03;;;0.60;;
77140;SDS011;66277;50.988;11.322;2022-12-29T14:47:42;1.77;;;0.60;;
77140;SDS011;66277;50.988;11.322;2022-12-29T14:56:01;2.83;;;0.60;;
77140;SDS011;66277;50.988;11.322;2022-12-29T14:58:30;2.15;;;0.70;;
77140;SDS011;66277;50.988;11.322;2022-12-29T15:01:00;0.90;;;0.30;;
77140;SDS011;66277;50.988;11.322;2022-12-29T15:03:31;4.68;;;1.30;;
77140;SDS011;66277;50.988;11.322;2022-12-29T15:06:05;3.05;;;0.95;;
77140;SDS011;66277;50.988;11.322;2022-12-29T15:08:53;2.17;;;0.25;;
77140;SDS011;66277;50.988;11.322;2022-12-29T15:11:41;3.97;;;1.52;;
77140;SDS011;66277;50.988;11.322;2022-12-29T15:14:29;1.27;;;0.40;;
77140;SDS011;66277;50.988;11.322;2022-12-29T15:16:57;1.45;;;0.50;;
77140;SDS011;66277;50.988;11.322;2022-12-29T15:19:24;1.90;;;1.00;;
77140;SDS011;66277;50.988;11.322;2022-12-29T15:21:50;2.30;;;0.60;;
77140;SDS011;66277;50.988;11.322;2022-12-29T15:24:18;3.25;;;0.90;;
77140;SDS011;66277;50.988;11.322;2022-12-29T15:26:45;2.83;;;0.65;;
77140;SDS011;66277;50.988;11.322;2022-12-29T15:31:59;1.65;;;0.75;;
77140;SDS011;66277;50.988;11.322;2022-12-29T15:34:28;1.52;;;0.43;;
77140;SDS011;66277;50.988;11.322;2022-12-29T15:36:55;1.90;;;0.70;;
77140;SDS011;66277;50.988;11.322;2022-12-29T15:39:30;1.38;;;0.50;;
77140;SDS011;66277;50.988;11.322;2022-12-29T15:41:58;3.65;;;0.70;;
77140;SDS011;66277;50.988;11.322;2022-12-29T15:47:08;1.80;;;0.75;;
77140;SDS011;66277;50.988;11.322;2022-12-29T15:49:44;3.55;;;1.00;;
77140;SDS011;66277;50.988;11.322;2022-12-29T15:52:17;2.47;;;0.70;;
77140;SDS011;66277;50.988;11.322;2022-12-29T15:54:44;3.30;;;0.90;;
77140;SDS011;66277;50.988;11.322;2022-12-29T15:57:19;1.75;;;0.80;;
77140;SDS011;66277;50.988;11.322;2022-12-29T15:59:53;2.20;;;1.02;;
77140;SDS011;66277;50.988;11.322;2022-12-29T16:02:20;1.88;;;0.85;;
77140;SDS011;66277;50.988;11.322;2022-12-29T16:04:49;2.00;;;0.70;;
77140;SDS011;66277;50.988;11.322;2022-12-29T16:07:29;3.90;;;1.08;;
77140;SDS011;66277;50.988;11.322;2022-12-29T16:09:57;3.65;;;0.93;;
77140;SDS011;66277;50.988;11.322;2022-12-29T16:12:26;3.05;;;1.27;;
77140;SDS011;66277;50.988;11.322;2022-12-29T16:14:57;4.75;;;0.93;;
77140;SDS011;66277;50.988;11.322;2022-12-29T16:17:26;3.40;;;0.98;;
77140;SDS011;66277;50.988;11.322;2022-12-29T16:19:59;3.33;;;0.80;;
77140;SDS011;66277;50.988;11.322;2022-12-29T16:25:03;3.05;;;1.20;;
77140;SDS011;66277;50.988;11.322;2022-12-29T16:27:40;3.20;;;1.30;;
77140;SDS011;66277;50.988;11.322;2022-12-29T16:30:16;2.88;;;1.58;;
77140;SDS011;66277;50.988;11.322;2022-12-29T16:32:56;2.65;;;1.05;;
77140;SDS011;66277;50.988;11.322;2022-12-29T16:35:24;2.08;;;1.10;;
77140;SDS011;66277;50.988;11.322;2022-12-29T16:38:12;2.78;;;1.15;;
77140;SDS011;66277;50.988;11.322;2022-12-29T16:40:49;4.35;;;1.33;;
77140;SDS011;66277;50.988;11.322;2022-12-29T16:43:19;3.63;;;1.33;;
77140;SDS011;66277;50.988;11.322;2022-12-29T16:50:38;3.83;;;1.70;;
77140;SDS011;66277;50.988;11.322;2022-12-29T16:53:06;3.13;;;1.30;;
77140;SDS011;66277;50.988;11.322;2022-12-29T16:55:47;2.63;;;1.52;;
77140;SDS011;66277;50.988;11.322;2022-12-29T16:58:21;3.05;;;1.30;;
77140;SDS011;66277;50.988;11.322;2022-12-29T17:00:49;3.85;;;1.48;;
77140;SDS011;66277;50.988;11.322;2022-12-29T17:03:21;3.92;;;1.60;;
77140;SDS011;66277;50.988;11.322;2022-12-29T17:05:47;2.53;;;1.30;;
77140;SDS011;66277;50.988;11.322;2022-12-29T17:08:17;3.97;;;1.63;;
77140;SDS011;66277;50.988;11.322;2022-12-29T17:10:51;4.65;;;1.13;;
77140;SDS011;66277;50.988;11.322;2022-12-29T17:13:37;3.92;;;1.42;;
77140;SDS011;66277;50.988;11.322;2022-12-29T17:16:04;3.90;;;1.35;;
77140;SDS011;66277;50.988;11.322;2022-12-29T17:18:32;2.15;;;1.25;;
77140;SDS011;66277;50.988;11.322;2022-12-29T17:20:58;3.08;;;1.48;;
77140;SDS011;66277;50.988;11.322;2022-12-29T17:23:24;2.95;;;1.30;;
77140;SDS011;66277;50.988;11.322;2022-12-29T17:25:49;6.50;;;1.92;;
77140;SDS011;66277;50.988;11.322;2022-12-29T17:30:45;2.80;;;1.30;;
77140;SDS011;66277;50.988;11.322;2022-12-29T17:33:17;3.88;;;1.00;;
77140;SDS011;66277;50.988;11.322;2022-12-29T17:35:44;2.97;;;1.38;;
77140;SDS011;66277;50.988;11.322;2022-12-29T17:43:12;4.47;;;2.50;;
77140;SDS011;66277;50.988;11.322;2022-12-29T17:45:39;3.95;;;2.60;;
77140;SDS011;66277;50.988;11.322;2022-12-29T17:48:15;2.47;;;1.80;;